sensor_id;sensor_type;location;lat;lon;timestamp;P1;durP1;ratioP1;P2;durP2;ratioP2
47866;SDS011;33628;50.806;11.586;2023-09-30T00:02:07;5.32;;;1.88;;
47866;SDS011;33628;50.806;11.586;2023-09-30T00:04:33;5.30;;;2.03;;
47866;SDS011;33628;50.806;11.586;2023-09-30T00:07:00;3.88;;;2.03;;
47866;SDS011;33628;50.806;11.586;2023-09-30T00:09:27;6.68;;;1.67;;
47866;SDS011;33628;50.806;11.586;2023-09-30T00:11:55;6.97;;;2.17;;
47866;SDS011;33628;50.806;11.586;2023-09-30T00:14:22;3.55;;;1.73;;
47866;SDS011;33628;50.806;11.586;2023-09-30T00:16:48;4.90;;;2.10;;
47866;SDS011;33628;50.806;11.586;2023-09-30T00:19:16;5.15;;;1.98;;
47866;SDS011;33628;50.806;11.586;2023-09-30T00:21:43;4.78;;;2.10;;
47866;SDS011;33628;50.806;11.586;2023-09-30T00:24:09;4.53;;;1.75;;
47866;SDS011;33628;50.806;11.586;2023-09-30T00:26:37;4.07;;;1.83;;
47866;SDS011;33628;50.806;11.586;2023-09-30T00:29:05;6.65;;;2.10;;
47866;SDS011;33628;50.806;11.586;2023-09-30T00:31:32;4.10;;;2.00;;
47866;SDS011;33628;50.806;11.586;2023-09-30T00:33:58;7.10;;;2.30;;
47866;SDS011;33628;50.806;11.586;2023-09-30T00:36:25;5.30;;;1.70;;
47866;SDS011;33628;50.806;11.586;2023-09-30T00:38:52;4.60;;;1.92;;
47866;SDS011;33628;50.806;11.586;2023-09-30T00:41:18;3.65;;;1.55;;
47866;SDS011;33628;50.806;11.586;2023-09-30T00:43:45;4.85;;;2.00;;
47866;SDS011;33628;50.806;11.586;2023-09-30T00:46:15;7.45;;;2.00;;
47866;SDS011;33628;50.806;11.586;2023-09-30T00:48:53;5.07;;;1.83;;
47866;SDS011;33628;50.806;11.586;2023-09-30T00:51:19;4.93;;;2.20;;
47866;SDS011;33628;50.806;11.586;2023-09-30T00:53:47;5.20;;;1.98;;
47866;SDS011;33628;50.806;11.586;2023-09-30T00:56:13;6.60;;;1.95;;
47866;SDS011;33628;50.806;11.586;2023-09-30T00:58:40;7.30;;;2.03;;
47866;SDS011;33628;50.806;11.586;2023-09-30T01:01:07;7.90;;;1.92;;
47866;SDS011;33628;50.806;11.586;2023-09-30T01:03:37;5.18;;;1.90;;
47866;SDS011;33628;50.806;11.586;2023-09-30T01:06:05;6.35;;;2.00;;
47866;SDS011;33628;50.806;11.586;2023-09-30T01:08:31;6.05;;;2.45;;
47866;SDS011;33628;50.806;11.586;2023-09-30T01:10:59;6.55;;;2.65;;
47866;SDS011;33628;50.806;11.586;2023-09-30T01:13:31;5.57;;;2.00;;
47866;SDS011;33628;50.806;11.586;2023-09-30T01:15:58;3.88;;;1.80;;
47866;SDS011;33628;50.806;11.586;2023-09-30T01:18:24;5.13;;;1.73;;
47866;SDS011;33628;50.806;11.586;2023-09-30T01:20:53;8.07;;;2.10;;
47866;SDS011;33628;50.806;11.586;2023-09-30T01:23:22;3.67;;;1.98;;
47866;SDS011;33628;50.806;11.586;2023-09-30T01:25:48;7.25;;;2.05;;
47866;SDS011;33628;50.806;11.586;2023-09-30T01:28:15;4.50;;;2.05;;
47866;SDS011;33628;50.806;11.586;2023-09-30T01:30:43;7.72;;;2.55;;
47866;SDS011;33628;50.806;11.586;2023-09-30T01:33:10;7.75;;;2.17;;
47866;SDS011;33628;50.806;11.586;2023-09-30T01:35:37;8.10;;;2.10;;
47866;SDS011;33628;50.806;11.586;2023-09-30T01:38:05;7.38;;;2.38;;
47866;SDS011;33628;50.806;11.586;2023-09-30T01:40:33;9.63;;;2.20;;
47866;SDS011;33628;50.806;11.586;2023-09-30T01:43:00;8.88;;;2.80;;
47866;SDS011;33628;50.806;11.586;2023-09-30T01:45:26;7.53;;;2.15;;
47866;SDS011;33628;50.806;11.586;2023-09-30T01:47:53;7.28;;;2.42;;
47866;SDS011;33628;50.806;11.586;2023-09-30T01:50:20;6.38;;;2.10;;
47866;SDS011;33628;50.806;11.586;2023-09-30T01:52:46;7.45;;;2.33;;
47866;SDS011;33628;50.806;11.586;2023-09-30T01:55:13;7.25;;;1.80;;
47866;SDS011;33628;50.806;11.586;2023-09-30T01:57:41;5.57;;;2.17;;
47866;SDS011;33628;50.806;11.586;2023-09-30T02:00:08;6.30;;;1.98;;
47866;SDS011;33628;50.806;11.586;2023-09-30T02:02:38;7.57;;;2.15;;
47866;SDS011;33628;50.806;11.586;2023-09-30T02:05:05;7.75;;;2.03;;
47866;SDS011;33628;50.806;11.586;2023-09-30T02:07:35;5.70;;;2.08;;
47866;SDS011;33628;50.806;11.586;2023-09-30T02:10:02;8.27;;;1.98;;
47866;SDS011;33628;50.806;11.586;2023-09-30T02:12:29;5.68;;;2.00;;
47866;SDS011;33628;50.806;11.586;2023-09-30T02:14:57;6.40;;;2.05;;
47866;SDS011;33628;50.806;11.586;2023-09-30T02:17:24;8.93;;;1.90;;
47866;SDS011;33628;50.806;11.586;2023-09-30T02:19:51;6.00;;;1.75;;
47866;SDS011;33628;50.806;11.586;2023-09-30T02:22:19;9.15;;;2.20;;
47866;SDS011;33628;50.806;11.586;2023-09-30T02:24:46;7.75;;;2.05;;
47866;SDS011;33628;50.806;11.586;2023-09-30T02:27:14;7.03;;;1.75;;
47866;SDS011;33628;50.806;11.586;2023-09-30T02:29:41;7.80;;;2.22;;
47866;SDS011;33628;50.806;11.586;2023-09-30T02:32:08;6.47;;;2.05;;
47866;SDS011;33628;50.806;11.586;2023-09-30T02:34:35;11.25;;;2.05;;
47866;SDS011;33628;50.806;11.586;2023-09-30T02:37:02;6.47;;;1.70;;
47866;SDS011;33628;50.806;11.586;2023-09-30T02:39:28;7.03;;;1.80;;
47866;SDS011;33628;50.806;11.586;2023-09-30T02:41:55;7.53;;;1.98;;
47866;SDS011;33628;50.806;11.586;2023-09-30T02:44:22;5.10;;;1.80;;
47866;SDS011;33628;50.806;11.586;2023-09-30T02:46:49;8.02;;;2.13;;
47866;SDS011;33628;50.806;11.586;2023-09-30T02:49:17;6.50;;;1.95;;
47866;SDS011;33628;50.806;11.586;2023-09-30T02:51:44;6.15;;;1.60;;
47866;SDS011;33628;50.806;11.586;2023-09-30T02:54:11;5.25;;;2.00;;
47866;SDS011;33628;50.806;11.586;2023-09-30T02:56:42;5.05;;;1.65;;
47866;SDS011;33628;50.806;11.586;2023-09-30T02:59:10;5.38;;;1.70;;
47866;SDS011;33628;50.806;11.586;2023-09-30T03:01:37;6.07;;;1.58;;
47866;SDS011;33628;50.806;11.586;2023-09-30T03:04:03;7.72;;;1.67;;
47866;SDS011;33628;50.806;11.586;2023-09-30T03:06:34;5.18;;;1.90;;
47866;SDS011;33628;50.806;11.586;2023-09-30T03:09:04;13.18;;;3.15;;
47866;SDS011;33628;50.806;11.586;2023-09-30T03:11:31;6.18;;;2.20;;
47866;SDS011;33628;50.806;11.586;2023-09-30T03:13:58;5.60;;;2.15;;
47866;SDS011;33628;50.806;11.586;2023-09-30T03:16:24;8.65;;;2.10;;
47866;SDS011;33628;50.806;11.586;2023-09-30T03:18:51;7.13;;;1.80;;
47866;SDS011;33628;50.806;11.586;2023-09-30T03:21:17;5.63;;;1.95;;
47866;SDS011;33628;50.806;11.586;2023-09-30T03:23:47;5.68;;;2.03;;
47866;SDS011;33628;50.806;11.586;2023-09-30T03:26:13;6.95;;;2.05;;
47866;SDS011;33628;50.806;11.586;2023-09-30T03:28:41;8.35;;;2.55;;
47866;SDS011;33628;50.806;11.586;2023-09-30T03:31:08;6.72;;;2.25;;
47866;SDS011;33628;50.806;11.586;2023-09-30T03:33:37;6.28;;;2.08;;
47866;SDS011;33628;50.806;11.586;2023-09-30T03:36:03;6.05;;;1.92;;
47866;SDS011;33628;50.806;11.586;2023-09-30T03:38:30;4.53;;;1.60;;
47866;SDS011;33628;50.806;11.586;2023-09-30T03:41:00;8.48;;;2.28;;
47866;SDS011;33628;50.806;11.586;2023-09-30T03:43:26;5.10;;;2.50;;
47866;SDS011;33628;50.806;11.586;2023-09-30T03:45:53;7.82;;;2.55;;
47866;SDS011;33628;50.806;11.586;2023-09-30T03:48:21;7.72;;;3.22;;
47866;SDS011;33628;50.806;11.586;2023-09-30T03:50:48;9.75;;;2.72;;
47866;SDS011;33628;50.806;11.586;2023-09-30T03:53:15;6.35;;;1.70;;
47866;SDS011;33628;50.806;11.586;2023-09-30T03:55:41;7.65;;;2.20;;
47866;SDS011;33628;50.806;11.586;2023-09-30T03:58:09;7.28;;;2.13;;
47866;SDS011;33628;50.806;11.586;2023-09-30T04:00:36;8.38;;;2.05;;
47866;SDS011;33628;50.806;11.586;2023-09-30T04:03:03;10.90;;;2.03;;
47866;SDS011;33628;50.806;11.586;2023-09-30T04:05:29;5.85;;;2.20;;
47866;SDS011;33628;50.806;11.586;2023-09-30T04:07:59;5.72;;;2.28;;
47866;SDS011;33628;50.806;11.586;2023-09-30T04:10:26;6.03;;;2.28;;
47866;SDS011;33628;50.806;11.586;2023-09-30T04:12:55;5.55;;;2.08;;
47866;SDS011;33628;50.806;11.586;2023-09-30T04:15:23;5.97;;;2.13;;
47866;SDS011;33628;50.806;11.586;2023-09-30T04:17:50;7.47;;;2.20;;
47866;SDS011;33628;50.806;11.586;2023-09-30T04:20:18;5.20;;;1.95;;
47866;SDS011;33628;50.806;11.586;2023-09-30T04:22:49;7.70;;;2.63;;
47866;SDS011;33628;50.806;11.586;2023-09-30T04:25:16;9.90;;;2.33;;
47866;SDS011;33628;50.806;11.586;2023-09-30T04:27:43;10.55;;;2.92;;
47866;SDS011;33628;50.806;11.586;2023-09-30T04:30:10;7.65;;;2.45;;
47866;SDS011;33628;50.806;11.586;2023-09-30T04:32:38;8.98;;;2.42;;
47866;SDS011;33628;50.806;11.586;2023-09-30T04:35:05;7.55;;;2.25;;
47866;SDS011;33628;50.806;11.586;2023-09-30T04:37:36;7.25;;;2.55;;
47866;SDS011;33628;50.806;11.586;2023-09-30T04:40:03;8.38;;;2.55;;
47866;SDS011;33628;50.806;11.586;2023-09-30T04:42:35;8.13;;;2.35;;
47866;SDS011;33628;50.806;11.586;2023-09-30T04:45:04;8.00;;;2.63;;
47866;SDS011;33628;50.806;11.586;2023-09-30T04:47:33;8.75;;;2.40;;
47866;SDS011;33628;50.806;11.586;2023-09-30T04:50:01;4.85;;;2.17;;
47866;SDS011;33628;50.806;11.586;2023-09-30T04:52:33;10.93;;;2.70;;
47866;SDS011;33628;50.806;11.586;2023-09-30T04:54:59;6.28;;;2.22;;
47866;SDS011;33628;50.806;11.586;2023-09-30T04:57:26;9.68;;;2.65;;
47866;SDS011;33628;50.806;11.586;2023-09-30T04:59:53;5.43;;;2.30;;
47866;SDS011;33628;50.806;11.586;2023-09-30T05:02:19;7.90;;;3.08;;
47866;SDS011;33628;50.806;11.586;2023-09-30T05:04:46;6.93;;;2.50;;
47866;SDS011;33628;50.806;11.586;2023-09-30T05:07:14;9.38;;;2.47;;
47866;SDS011;33628;50.806;11.586;2023-09-30T05:09:40;7.80;;;2.60;;
47866;SDS011;33628;50.806;11.586;2023-09-30T05:12:08;7.85;;;2.50;;
47866;SDS011;33628;50.806;11.586;2023-09-30T05:14:35;12.35;;;2.67;;
47866;SDS011;33628;50.806;11.586;2023-09-30T05:17:02;7.15;;;2.30;;
47866;SDS011;33628;50.806;11.586;2023-09-30T05:19:30;9.00;;;2.42;;
47866;SDS011;33628;50.806;11.586;2023-09-30T05:22:01;7.63;;;2.33;;
47866;SDS011;33628;50.806;11.586;2023-09-30T05:24:30;6.28;;;2.80;;
47866;SDS011;33628;50.806;11.586;2023-09-30T05:26:57;9.75;;;2.28;;
47866;SDS011;33628;50.806;11.586;2023-09-30T05:29:23;7.25;;;2.50;;
47866;SDS011;33628;50.806;11.586;2023-09-30T05:31:50;7.20;;;2.50;;
47866;SDS011;33628;50.806;11.586;2023-09-30T05:34:17;5.80;;;2.10;;
47866;SDS011;33628;50.806;11.586;2023-09-30T05:36:43;6.90;;;2.53;;
47866;SDS011;33628;50.806;11.586;2023-09-30T05:39:10;8.90;;;2.55;;
47866;SDS011;33628;50.806;11.586;2023-09-30T05:41:39;8.70;;;3.08;;
47866;SDS011;33628;50.806;11.586;2023-09-30T05:44:06;9.20;;;2.38;;
47866;SDS011;33628;50.806;11.586;2023-09-30T05:46:33;6.38;;;2.20;;
47866;SDS011;33628;50.806;11.586;2023-09-30T05:48:59;8.88;;;2.35;;
47866;SDS011;33628;50.806;11.586;2023-09-30T05:51:26;6.50;;;2.40;;
47866;SDS011;33628;50.806;11.586;2023-09-30T05:53:53;8.30;;;2.47;;
47866;SDS011;33628;50.806;11.586;2023-09-30T05:56:20;5.82;;;2.10;;
47866;SDS011;33628;50.806;11.586;2023-09-30T05:58:48;8.25;;;2.58;;
47866;SDS011;33628;50.806;11.586;2023-09-30T06:01:15;7.50;;;2.38;;
47866;SDS011;33628;50.806;11.586;2023-09-30T06:03:44;6.85;;;2.40;;
47866;SDS011;33628;50.806;11.586;2023-09-30T06:06:12;13.10;;;3.42;;
47866;SDS011;33628;50.806;11.586;2023-09-30T06:08:39;7.32;;;2.67;;
47866;SDS011;33628;50.806;11.586;2023-09-30T06:11:06;8.07;;;2.60;;
47866;SDS011;33628;50.806;11.586;2023-09-30T06:13:33;6.28;;;2.35;;
47866;SDS011;33628;50.806;11.586;2023-09-30T06:16:01;8.52;;;3.22;;
47866;SDS011;33628;50.806;11.586;2023-09-30T06:18:28;8.35;;;2.80;;
47866;SDS011;33628;50.806;11.586;2023-09-30T06:20:54;6.18;;;2.80;;
47866;SDS011;33628;50.806;11.586;2023-09-30T06:23:22;7.43;;;2.50;;
47866;SDS011;33628;50.806;11.586;2023-09-30T06:25:48;9.48;;;3.50;;
47866;SDS011;33628;50.806;11.586;2023-09-30T06:28:17;10.85;;;3.42;;
47866;SDS011;33628;50.806;11.586;2023-09-30T06:30:44;10.20;;;2.40;;
47866;SDS011;33628;50.806;11.586;2023-09-30T06:33:13;6.65;;;2.70;;
47866;SDS011;33628;50.806;11.586;2023-09-30T06:35:41;7.78;;;2.60;;
47866;SDS011;33628;50.806;11.586;2023-09-30T06:38:16;7.82;;;2.50;;
47866;SDS011;33628;50.806;11.586;2023-09-30T06:40:43;9.10;;;2.60;;
47866;SDS011;33628;50.806;11.586;2023-09-30T06:43:11;8.38;;;2.40;;
47866;SDS011;33628;50.806;11.586;2023-09-30T06:45:37;6.13;;;2.30;;
47866;SDS011;33628;50.806;11.586;2023-09-30T06:48:07;10.85;;;2.70;;
47866;SDS011;33628;50.806;11.586;2023-09-30T06:50:42;7.47;;;2.10;;
47866;SDS011;33628;50.806;11.586;2023-09-30T06:53:10;5.57;;;2.08;;
47866;SDS011;33628;50.806;11.586;2023-09-30T06:55:37;5.78;;;2.65;;
47866;SDS011;33628;50.806;11.586;2023-09-30T06:58:04;8.60;;;2.47;;
47866;SDS011;33628;50.806;11.586;2023-09-30T07:00:33;4.43;;;2.63;;
47866;SDS011;33628;50.806;11.586;2023-09-30T07:03:01;6.40;;;2.33;;
47866;SDS011;33628;50.806;11.586;2023-09-30T07:05:27;9.30;;;2.58;;
47866;SDS011;33628;50.806;11.586;2023-09-30T07:07:56;6.13;;;2.10;;
47866;SDS011;33628;50.806;11.586;2023-09-30T07:10:22;9.52;;;2.40;;
47866;SDS011;33628;50.806;11.586;2023-09-30T07:12:49;7.38;;;2.40;;
47866;SDS011;33628;50.806;11.586;2023-09-30T07:15:16;9.18;;;2.60;;
47866;SDS011;33628;50.806;11.586;2023-09-30T07:17:43;9.23;;;2.80;;
47866;SDS011;33628;50.806;11.586;2023-09-30T07:20:11;10.27;;;2.88;;
47866;SDS011;33628;50.806;11.586;2023-09-30T07:22:38;10.77;;;2.22;;
47866;SDS011;33628;50.806;11.586;2023-09-30T07:25:06;10.55;;;3.03;;
47866;SDS011;33628;50.806;11.586;2023-09-30T07:27:35;6.68;;;2.80;;
47866;SDS011;33628;50.806;11.586;2023-09-30T07:30:02;8.50;;;2.85;;
47866;SDS011;33628;50.806;11.586;2023-09-30T07:32:32;6.88;;;2.42;;
47866;SDS011;33628;50.806;11.586;2023-09-30T07:34:59;8.68;;;2.60;;
47866;SDS011;33628;50.806;11.586;2023-09-30T07:37:25;7.55;;;3.15;;
47866;SDS011;33628;50.806;11.586;2023-09-30T07:39:52;6.78;;;2.92;;
47866;SDS011;33628;50.806;11.586;2023-09-30T07:42:20;8.07;;;2.95;;
47866;SDS011;33628;50.806;11.586;2023-09-30T07:44:49;9.13;;;2.70;;
47866;SDS011;33628;50.806;11.586;2023-09-30T07:47:15;9.02;;;2.33;;
47866;SDS011;33628;50.806;11.586;2023-09-30T07:49:42;7.78;;;2.28;;
47866;SDS011;33628;50.806;11.586;2023-09-30T07:52:09;8.00;;;2.97;;
47866;SDS011;33628;50.806;11.586;2023-09-30T07:54:36;7.32;;;2.78;;
47866;SDS011;33628;50.806;11.586;2023-09-30T07:57:03;7.68;;;2.85;;
47866;SDS011;33628;50.806;11.586;2023-09-30T07:59:31;8.95;;;2.75;;
47866;SDS011;33628;50.806;11.586;2023-09-30T08:02:01;7.60;;;2.58;;
47866;SDS011;33628;50.806;11.586;2023-09-30T08:04:30;8.10;;;2.90;;
47866;SDS011;33628;50.806;11.586;2023-09-30T08:06:57;10.02;;;2.70;;
47866;SDS011;33628;50.806;11.586;2023-09-30T08:09:24;7.90;;;2.88;;
47866;SDS011;33628;50.806;11.586;2023-09-30T08:11:52;9.05;;;2.72;;
47866;SDS011;33628;50.806;11.586;2023-09-30T08:14:19;12.60;;;3.08;;
47866;SDS011;33628;50.806;11.586;2023-09-30T08:16:47;6.50;;;2.45;;
47866;SDS011;33628;50.806;11.586;2023-09-30T08:19:15;7.97;;;2.75;;
47866;SDS011;33628;50.806;11.586;2023-09-30T08:21:41;10.13;;;2.70;;
47866;SDS011;33628;50.806;11.586;2023-09-30T08:24:08;14.10;;;2.70;;
47866;SDS011;33628;50.806;11.586;2023-09-30T08:26:35;7.35;;;2.70;;
47866;SDS011;33628;50.806;11.586;2023-09-30T08:29:02;11.00;;;2.67;;
47866;SDS011;33628;50.806;11.586;2023-09-30T08:31:29;14.75;;;3.35;;
47866;SDS011;33628;50.806;11.586;2023-09-30T08:34:01;12.00;;;3.50;;
47866;SDS011;33628;50.806;11.586;2023-09-30T08:36:29;10.75;;;3.30;;
47866;SDS011;33628;50.806;11.586;2023-09-30T08:38:57;9.18;;;3.15;;
47866;SDS011;33628;50.806;11.586;2023-09-30T08:41:30;12.15;;;2.80;;
47866;SDS011;33628;50.806;11.586;2023-09-30T08:43:59;5.88;;;2.30;;
47866;SDS011;33628;50.806;11.586;2023-09-30T08:46:28;12.05;;;2.78;;
47866;SDS011;33628;50.806;11.586;2023-09-30T08:48:58;7.38;;;2.40;;
47866;SDS011;33628;50.806;11.586;2023-09-30T08:51:27;7.95;;;2.40;;
47866;SDS011;33628;50.806;11.586;2023-09-30T08:53:59;6.68;;;2.40;;
47866;SDS011;33628;50.806;11.586;2023-09-30T08:57:27;9.40;;;2.88;;
47866;SDS011;33628;50.806;11.586;2023-09-30T08:59:54;10.10;;;2.60;;
47866;SDS011;33628;50.806;11.586;2023-09-30T09:02:25;9.73;;;2.38;;
47866;SDS011;33628;50.806;11.586;2023-09-30T09:05:04;9.50;;;2.30;;
47866;SDS011;33628;50.806;11.586;2023-09-30T09:07:44;11.80;;;2.50;;
47866;SDS011;33628;50.806;11.586;2023-09-30T09:10:12;8.88;;;2.38;;
47866;SDS011;33628;50.806;11.586;2023-09-30T09:12:54;9.18;;;2.35;;
47866;SDS011;33628;50.806;11.586;2023-09-30T09:15:33;7.45;;;2.35;;
47866;SDS011;33628;50.806;11.586;2023-09-30T09:18:30;8.63;;;2.10;;
47866;SDS011;33628;50.806;11.586;2023-09-30T09:21:13;7.30;;;1.95;;
47866;SDS011;33628;50.806;11.586;2023-09-30T09:23:44;7.95;;;2.45;;
47866;SDS011;33628;50.806;11.586;2023-09-30T09:26:14;5.40;;;2.22;;
47866;SDS011;33628;50.806;11.586;2023-09-30T10:00:23;6.85;;;2.25;;
47866;SDS011;33628;50.806;11.586;2023-09-30T10:02:50;6.90;;;2.00;;
47866;SDS011;33628;50.806;11.586;2023-09-30T10:05:17;6.75;;;2.03;;
47866;SDS011;33628;50.806;11.586;2023-09-30T10:07:47;7.72;;;1.92;;
47866;SDS011;33628;50.806;11.586;2023-09-30T10:10:17;6.18;;;2.08;;
47866;SDS011;33628;50.806;11.586;2023-09-30T10:12:45;7.35;;;2.00;;
47866;SDS011;33628;50.806;11.586;2023-09-30T10:18:03;6.53;;;1.83;;
47866;SDS011;33628;50.806;11.586;2023-09-30T10:20:33;6.50;;;1.90;;
47866;SDS011;33628;50.806;11.586;2023-09-30T10:25:52;6.93;;;1.92;;
47866;SDS011;33628;50.806;11.586;2023-09-30T10:28:36;6.20;;;1.85;;
47866;SDS011;33628;50.806;11.586;2023-09-30T10:31:08;7.10;;;2.15;;
47866;SDS011;33628;50.806;11.586;2023-09-30T10:36:38;5.85;;;1.75;;
47866;SDS011;33628;50.806;11.586;2023-09-30T10:39:10;5.15;;;2.00;;
47866;SDS011;33628;50.806;11.586;2023-09-30T10:41:48;5.07;;;1.67;;
47866;SDS011;33628;50.806;11.586;2023-09-30T10:44:34;5.68;;;1.50;;
47866;SDS011;33628;50.806;11.586;2023-09-30T10:49:46;6.75;;;1.80;;
47866;SDS011;33628;50.806;11.586;2023-09-30T10:52:13;9.68;;;2.20;;
47866;SDS011;33628;50.806;11.586;2023-09-30T10:54:48;5.50;;;1.83;;
47866;SDS011;33628;50.806;11.586;2023-09-30T10:57:25;7.65;;;1.98;;
47866;SDS011;33628;50.806;11.586;2023-09-30T11:00:06;7.55;;;1.88;;
47866;SDS011;33628;50.806;11.586;2023-09-30T11:02:34;6.10;;;1.90;;
47866;SDS011;33628;50.806;11.586;2023-09-30T11:05:09;4.45;;;1.42;;
47866;SDS011;33628;50.806;11.586;2023-09-30T11:07:36;5.65;;;2.00;;
47866;SDS011;33628;50.806;11.586;2023-09-30T11:10:03;6.00;;;1.70;;
47866;SDS011;33628;50.806;11.586;2023-09-30T11:12:31;5.85;;;2.05;;
47866;SDS011;33628;50.806;11.586;2023-09-30T11:14:59;6.28;;;1.92;;
47866;SDS011;33628;50.806;11.586;2023-09-30T11:17:28;4.80;;;1.73;;
47866;SDS011;33628;50.806;11.586;2023-09-30T11:19:55;5.65;;;1.65;;
47866;SDS011;33628;50.806;11.586;2023-09-30T11:22:23;4.75;;;1.50;;
47866;SDS011;33628;50.806;11.586;2023-09-30T11:24:49;6.03;;;1.80;;
47866;SDS011;33628;50.806;11.586;2023-09-30T11:27:22;6.63;;;2.10;;
47866;SDS011;33628;50.806;11.586;2023-09-30T11:29:50;5.30;;;2.08;;
47866;SDS011;33628;50.806;11.586;2023-09-30T11:32:23;3.97;;;1.30;;
47866;SDS011;33628;50.806;11.586;2023-09-30T11:34:52;4.70;;;1.50;;
47866;SDS011;33628;50.806;11.586;2023-09-30T11:37:19;4.88;;;1.67;;
47866;SDS011;33628;50.806;11.586;2023-09-30T11:39:48;7.32;;;1.90;;
47866;SDS011;33628;50.806;11.586;2023-09-30T11:42:17;4.05;;;1.67;;
47866;SDS011;33628;50.806;11.586;2023-09-30T11:44:45;6.30;;;1.60;;
47866;SDS011;33628;50.806;11.586;2023-09-30T11:47:16;7.43;;;1.55;;
47866;SDS011;33628;50.806;11.586;2023-09-30T11:49:43;3.78;;;1.40;;
47866;SDS011;33628;50.806;11.586;2023-09-30T11:52:10;4.53;;;1.23;;
47866;SDS011;33628;50.806;11.586;2023-09-30T11:54:38;4.00;;;1.20;;
47866;SDS011;33628;50.806;11.586;2023-09-30T11:57:11;4.85;;;1.55;;
47866;SDS011;33628;50.806;11.586;2023-09-30T11:59:41;5.82;;;1.30;;
47866;SDS011;33628;50.806;11.586;2023-09-30T12:02:08;4.68;;;1.40;;
47866;SDS011;33628;50.806;11.586;2023-09-30T12:04:35;5.10;;;1.35;;
47866;SDS011;33628;50.806;11.586;2023-09-30T12:07:02;7.28;;;1.67;;
47866;SDS011;33628;50.806;11.586;2023-09-30T12:09:28;4.63;;;1.50;;
47866;SDS011;33628;50.806;11.586;2023-09-30T12:11:56;4.38;;;1.27;;
47866;SDS011;33628;50.806;11.586;2023-09-30T12:14:25;4.15;;;1.48;;
47866;SDS011;33628;50.806;11.586;2023-09-30T12:16:51;3.40;;;1.30;;
47866;SDS011;33628;50.806;11.586;2023-09-30T12:19:18;8.00;;;1.95;;
47866;SDS011;33628;50.806;11.586;2023-09-30T12:21:45;3.92;;;1.60;;
47866;SDS011;33628;50.806;11.586;2023-09-30T12:24:14;8.02;;;1.88;;
47866;SDS011;33628;50.806;11.586;2023-09-30T12:26:42;6.55;;;1.38;;
47866;SDS011;33628;50.806;11.586;2023-09-30T12:29:14;4.20;;;1.50;;
47866;SDS011;33628;50.806;11.586;2023-09-30T12:31:43;6.50;;;1.58;;
47866;SDS011;33628;50.806;11.586;2023-09-30T12:34:10;5.00;;;1.30;;
47866;SDS011;33628;50.806;11.586;2023-09-30T12:36:37;7.22;;;1.73;;
47866;SDS011;33628;50.806;11.586;2023-09-30T12:39:04;6.25;;;1.70;;
47866;SDS011;33628;50.806;11.586;2023-09-30T12:41:36;7.40;;;1.63;;
47866;SDS011;33628;50.806;11.586;2023-09-30T12:44:03;5.30;;;1.60;;
47866;SDS011;33628;50.806;11.586;2023-09-30T12:46:29;5.50;;;1.52;;
47866;SDS011;33628;50.806;11.586;2023-09-30T12:48:58;4.15;;;1.42;;
47866;SDS011;33628;50.806;11.586;2023-09-30T12:51:24;7.18;;;1.70;;
47866;SDS011;33628;50.806;11.586;2023-09-30T12:53:51;7.55;;;2.05;;
47866;SDS011;33628;50.806;11.586;2023-09-30T12:56:18;4.45;;;1.40;;
47866;SDS011;33628;50.806;11.586;2023-09-30T12:58:44;7.53;;;1.80;;
47866;SDS011;33628;50.806;11.586;2023-09-30T13:01:11;7.28;;;1.70;;
47866;SDS011;33628;50.806;11.586;2023-09-30T13:03:38;6.55;;;1.88;;
47866;SDS011;33628;50.806;11.586;2023-09-30T13:06:06;6.85;;;1.90;;
47866;SDS011;33628;50.806;11.586;2023-09-30T13:08:32;7.72;;;1.95;;
47866;SDS011;33628;50.806;11.586;2023-09-30T13:11:00;8.45;;;1.98;;
47866;SDS011;33628;50.806;11.586;2023-09-30T13:13:30;6.43;;;1.70;;
47866;SDS011;33628;50.806;11.586;2023-09-30T13:15:59;6.03;;;1.42;;
47866;SDS011;33628;50.806;11.586;2023-09-30T13:18:25;6.07;;;1.55;;
47866;SDS011;33628;50.806;11.586;2023-09-30T13:20:52;7.07;;;1.52;;
47866;SDS011;33628;50.806;11.586;2023-09-30T13:23:20;5.43;;;1.40;;
47866;SDS011;33628;50.806;11.586;2023-09-30T13:25:47;5.10;;;1.48;;
47866;SDS011;33628;50.806;11.586;2023-09-30T13:28:14;7.38;;;1.55;;
47866;SDS011;33628;50.806;11.586;2023-09-30T13:30:41;8.77;;;1.63;;
47866;SDS011;33628;50.806;11.586;2023-09-30T13:33:07;5.88;;;1.63;;
47866;SDS011;33628;50.806;11.586;2023-09-30T13:35:34;8.65;;;1.92;;
47866;SDS011;33628;50.806;11.586;2023-09-30T13:38:02;7.70;;;1.77;;
47866;SDS011;33628;50.806;11.586;2023-09-30T13:40:31;5.93;;;1.50;;
47866;SDS011;33628;50.806;11.586;2023-09-30T13:42:58;5.60;;;1.50;;
47866;SDS011;33628;50.806;11.586;2023-09-30T13:45:25;7.30;;;1.45;;
47866;SDS011;33628;50.806;11.586;2023-09-30T13:47:54;8.00;;;1.67;;
47866;SDS011;33628;50.806;11.586;2023-09-30T13:50:20;6.68;;;2.03;;
47866;SDS011;33628;50.806;11.586;2023-09-30T13:52:48;4.32;;;1.58;;
47866;SDS011;33628;50.806;11.586;2023-09-30T13:55:14;6.68;;;1.60;;
47866;SDS011;33628;50.806;11.586;2023-09-30T13:57:46;7.50;;;2.60;;
47866;SDS011;33628;50.806;11.586;2023-09-30T14:00:13;6.80;;;1.35;;
47866;SDS011;33628;50.806;11.586;2023-09-30T14:02:40;5.72;;;1.83;;
47866;SDS011;33628;50.806;11.586;2023-09-30T14:05:07;6.65;;;1.60;;
47866;SDS011;33628;50.806;11.586;2023-09-30T14:07:34;6.68;;;1.90;;
47866;SDS011;33628;50.806;11.586;2023-09-30T14:10:01;7.03;;;1.70;;
47866;SDS011;33628;50.806;11.586;2023-09-30T14:12:27;5.45;;;1.70;;
47866;SDS011;33628;50.806;11.586;2023-09-30T14:14:55;6.38;;;1.95;;
47866;SDS011;33628;50.806;11.586;2023-09-30T14:17:22;4.80;;;1.85;;
47866;SDS011;33628;50.806;11.586;2023-09-30T14:19:48;8.68;;;1.90;;
47866;SDS011;33628;50.806;11.586;2023-09-30T14:22:19;4.68;;;1.40;;
47866;SDS011;33628;50.806;11.586;2023-09-30T14:24:46;5.65;;;1.80;;
47866;SDS011;33628;50.806;11.586;2023-09-30T14:27:12;6.38;;;1.52;;
47866;SDS011;33628;50.806;11.586;2023-09-30T14:29:41;8.27;;;1.42;;
47866;SDS011;33628;50.806;11.586;2023-09-30T14:32:10;4.38;;;1.45;;
47866;SDS011;33628;50.806;11.586;2023-09-30T14:34:37;5.90;;;1.70;;
47866;SDS011;33628;50.806;11.586;2023-09-30T14:37:03;4.53;;;1.50;;
47866;SDS011;33628;50.806;11.586;2023-09-30T14:39:30;7.88;;;1.85;;
47866;SDS011;33628;50.806;11.586;2023-09-30T14:41:57;5.95;;;1.48;;
47866;SDS011;33628;50.806;11.586;2023-09-30T14:44:23;10.55;;;2.13;;
47866;SDS011;33628;50.806;11.586;2023-09-30T14:46:51;5.75;;;1.67;;
47866;SDS011;33628;50.806;11.586;2023-09-30T14:49:19;7.13;;;2.05;;
47866;SDS011;33628;50.806;11.586;2023-09-30T14:51:45;6.50;;;1.77;;
47866;SDS011;33628;50.806;11.586;2023-09-30T14:54:14;5.60;;;1.73;;
47866;SDS011;33628;50.806;11.586;2023-09-30T14:56:40;7.13;;;1.73;;
47866;SDS011;33628;50.806;11.586;2023-09-30T14:59:07;4.40;;;1.50;;
47866;SDS011;33628;50.806;11.586;2023-09-30T15:01:34;3.55;;;1.50;;
47866;SDS011;33628;50.806;11.586;2023-09-30T15:04:00;5.82;;;1.95;;
47866;SDS011;33628;50.806;11.586;2023-09-30T15:06:28;7.95;;;1.95;;
47866;SDS011;33628;50.806;11.586;2023-09-30T15:08:55;5.28;;;1.77;;
47866;SDS011;33628;50.806;11.586;2023-09-30T15:11:22;8.38;;;2.10;;
47866;SDS011;33628;50.806;11.586;2023-09-30T15:13:49;6.22;;;1.60;;
47866;SDS011;33628;50.806;11.586;2023-09-30T15:16:17;6.55;;;1.83;;
47866;SDS011;33628;50.806;11.586;2023-09-30T15:18:44;5.20;;;1.40;;
47866;SDS011;33628;50.806;11.586;2023-09-30T15:21:11;7.80;;;1.70;;
47866;SDS011;33628;50.806;11.586;2023-09-30T15:23:40;8.45;;;1.83;;